Time;durP1;ratioP1;P1;durP2;ratioP2;P2;SDS_P1;SDS_P2;PMS_P1;PMS_P2;Temp;Humidity;BMP_temperature;BMP_pressure;BME280_temperature;BME280_humidity;BME280_pressure;Samples;Min_cycle;Max_cycle;Signal;HPM_P1;HPM_P2
2022/07/29 00:08:04;;;;;;;7.15;3.70;;;20.10;99.90;;;;;;21000682;28;20434;-75
2022/07/29 00:18:05;;;;;;;5.30;3.60;;;19.80;99.90;;;;;;20923362;28;20029;-74
2022/07/29 00:28:05;;;;;;;5.93;3.70;;;19.50;99.90;;;;;;20870678;28;20029;-76
2022/07/29 00:38:06;;;;;;;8.37;3.63;;;19.70;99.90;;;;;;20857367;28;20021;-75
2022/07/29 00:48:08;;;;;;;6.07;4.10;;;19.70;99.90;;;;;;20848253;28;20033;-76
2022/07/29 00:58:12;;;;;;;5.68;4.40;;;19.10;99.90;;;;;;20846750;28;20033;-77
2022/07/29 01:08:15;;;;;;;8.43;4.40;;;19.00;99.90;;;;;;20845982;28;20090;-76
2022/07/29 01:18:35;;;;;;;6.18;4.20;;;18.60;99.90;;;;;;20855871;28;20116;-76
2022/07/29 01:29:04;;;;;;;8.25;4.80;;;18.60;99.90;;;;;;20864367;28;20025;-76
2022/07/29 01:39:18;;;;;;;5.82;4.40;;;18.50;99.90;;;;;;20885824;28;20029;-76
2022/07/29 01:49:28;;;;;;;6.22;3.80;;;18.70;99.90;;;;;;20905448;28;20419;-76
2022/07/29 01:59:30;;;;;;;5.28;4.00;;;18.60;99.90;;;;;;20921561;28;20466;-76
2022/07/29 02:09:35;;;;;;;6.13;3.92;;;18.70;99.90;;;;;;20932878;28;20029;-75
2022/07/29 02:19:38;;;;;;;9.98;4.03;;;18.60;99.90;;;;;;20929574;28;20115;-76
2022/07/29 02:29:40;;;;;;;8.73;4.45;;;18.80;99.90;;;;;;20910418;28;20526;-76
2022/07/29 02:39:43;;;;;;;9.15;4.35;;;18.40;99.90;;;;;;20929363;28;20552;-77
2022/07/29 02:50:02;;;;;;;7.18;4.70;;;18.50;99.90;;;;;;20918755;28;20095;-76
2022/07/29 03:00:08;;;;;;;5.30;4.22;;;18.60;99.90;;;;;;20915932;28;20410;-76
2022/07/29 03:10:09;;;;;;;8.05;4.38;;;18.50;99.90;;;;;;20911536;28;20041;-76
2022/07/29 03:20:11;;;;;;;7.07;4.30;;;18.30;99.90;;;;;;20887531;22;20033;-77
2022/07/29 03:30:13;;;;;;;8.25;4.53;;;18.10;99.90;;;;;;20829282;28;20515;-77
2022/07/29 03:40:19;;;;;;;7.50;4.65;;;18.00;99.90;;;;;;20828141;28;20112;-77
2022/07/29 03:50:21;;;;;;;6.82;4.53;;;17.90;99.90;;;;;;20828589;28;20033;-77
2022/07/29 04:00:25;;;;;;;8.85;4.40;;;18.10;99.90;;;;;;20826830;28;20559;-77
2022/07/29 04:10:26;;;;;;;8.43;4.45;;;18.10;99.90;;;;;;20826745;28;20079;-76
2022/07/29 04:20:26;;;;;;;8.40;5.20;;;18.20;99.90;;;;;;20825131;28;20057;-76
2022/07/29 04:30:28;;;;;;;7.17;6.13;;;18.20;99.90;;;;;;20822598;28;20040;-78
2022/07/29 04:40:29;;;;;;;11.00;5.78;;;18.40;99.90;;;;;;20824520;28;20061;-76
2022/07/29 04:50:29;;;;;;;7.10;5.33;;;18.30;99.90;;;;;;20823718;28;20511;-76
2022/07/29 05:00:30;;;;;;;6.60;4.63;;;18.50;99.90;;;;;;20824306;28;20052;-76
2022/07/29 05:10:32;;;;;;;11.00;5.43;;;18.60;99.90;;;;;;20830082;28;20037;-76
2022/07/29 05:20:34;;;;;;;9.23;5.50;;;18.50;99.90;;;;;;20845407;28;20034;-76
2022/07/29 05:30:35;;;;;;;8.35;5.72;;;18.70;99.90;;;;;;20837737;28;20032;-75
2022/07/29 05:40:36;;;;;;;8.73;5.03;;;19.40;99.90;;;;;;20832269;28;20120;-76
2022/07/29 05:50:36;;;;;;;8.67;4.90;;;20.00;99.90;;;;;;20836850;28;20642;-76
2022/07/29 06:00:37;;;;;;;5.63;4.53;;;20.30;99.90;;;;;;20876362;28;20025;-76
2022/07/29 06:10:38;;;;;;;8.90;4.53;;;20.30;99.90;;;;;;20864341;28;20043;-76
2022/07/29 06:20:39;;;;;;;5.97;4.17;;;20.10;99.90;;;;;;20844958;28;20422;-76
2022/07/29 06:30:40;;;;;;;9.63;4.20;;;20.30;99.90;;;;;;20870434;28;20480;-76
2022/07/29 06:51:06;;;;;;;6.47;3.97;;;20.70;99.90;;;;;;20864847;28;20112;-77
2022/07/29 07:01:07;;;;;;;7.55;4.85;;;21.20;99.90;;;;;;20867766;28;20486;-77
2022/07/29 07:11:08;;;;;;;6.43;4.10;;;21.30;99.90;;;;;;20858323;28;20029;-77
2022/07/29 07:21:09;;;;;;;6.60;4.30;;;21.80;99.90;;;;;;20911570;28;20044;-77
2022/07/29 07:31:11;;;;;;;6.63;4.37;;;22.60;99.90;;;;;;20910149;28;20535;-77
2022/07/29 07:41:11;;;;;;;5.75;4.00;;;22.10;99.90;;;;;;20878911;28;20038;-77
2022/07/29 07:51:12;;;;;;;6.27;3.60;;;22.30;99.90;;;;;;20867727;28;20163;-77
2022/07/29 08:01:13;;;;;;;4.78;3.25;;;22.60;99.90;;;;;;20866555;28;20030;-77
2022/07/29 08:11:14;;;;;;;9.30;4.27;;;22.40;99.90;;;;;;20867841;28;20069;-77
2022/07/29 08:21:15;;;;;;;7.73;4.37;;;22.80;99.90;;;;;;20869026;28;20068;-77
2022/07/29 08:31:16;;;;;;;6.50;4.28;;;22.70;99.90;;;;;;20844133;28;20641;-77
2022/07/29 08:41:21;;;;;;;4.30;3.60;;;22.20;99.90;;;;;;20803878;28;20405;-77
2022/07/29 08:51:25;;;;;;;12.63;4.28;;;22.30;99.90;;;;;;20840720;28;20029;-77
2022/07/29 09:01:29;;;;;;;8.23;4.10;;;22.70;99.90;;;;;;20822931;28;20399;-77
2022/07/29 09:11:32;;;;;;;6.25;4.10;;;23.00;99.90;;;;;;20837099;28;20083;-77
2022/07/29 09:21:58;;;;;;;5.70;3.90;;;23.70;99.90;;;;;;20900237;22;20503;-73
2022/07/29 09:31:59;;;;;;;5.32;2.80;;;24.40;99.90;;;;;;20921273;28;20072;-73
2022/07/29 09:42:05;;;;;;;3.40;2.30;;;24.40;99.90;;;;;;20920792;28;20036;-73
2022/07/29 09:52:08;;;;;;;3.13;2.15;;;24.70;99.90;;;;;;20920312;28;20325;-73
2022/07/29 10:02:13;;;;;;;2.97;2.00;;;25.00;99.90;;;;;;20918800;28;20483;-74
2022/07/29 10:12:14;;;;;;;3.92;2.53;;;25.10;99.90;;;;;;20918287;28;20035;-75
2022/07/29 10:22:15;;;;;;;3.10;2.13;;;26.70;99.90;;;;;;20916879;28;20119;-75
2022/07/29 10:32:21;;;;;;;5.60;1.60;;;26.60;99.90;;;;;;20932348;28;20523;-74
2022/07/29 10:42:28;;;;;;;3.20;1.67;;;26.80;99.90;;;;;;20910070;28;20056;-74
2022/07/29 10:52:52;;;;;;;3.35;1.40;;;25.80;99.90;;;;;;20833024;28;20033;-73
2022/07/29 11:02:55;;;;;;;6.57;1.42;;;25.40;99.90;;;;;;20814297;28;20037;-74
2022/07/29 11:12:55;;;;;;;8.18;1.67;;;25.70;99.90;;;;;;20836783;28;20037;-73
2022/07/29 11:22:57;;;;;;;3.13;1.40;;;26.50;99.90;;;;;;20845759;28;20114;-73
2022/07/29 11:32:58;;;;;;;4.95;2.03;;;27.20;99.90;;;;;;20840316;28;20034;-74
2022/07/29 11:42:59;;;;;;;9.23;1.90;;;26.70;99.90;;;;;;20835178;28;20099;-73
2022/07/29 11:53:01;;;;;;;3.67;1.67;;;26.00;99.90;;;;;;20867350;28;20487;-72
2022/07/29 12:03:07;;;;;;;7.47;2.20;;;25.60;99.90;;;;;;20864639;28;20033;-72
2022/07/29 12:13:08;;;;;;;2.78;2.08;;;25.70;99.90;;;;;;20871906;28;20048;-72
2022/07/29 12:23:14;;;;;;;9.20;2.00;;;25.80;99.90;;;;;;20869558;28;20401;-73
2022/07/29 12:33:14;;;;;;;2.75;1.75;;;25.80;99.90;;;;;;20870754;28;20167;-72
2022/07/29 12:43:16;;;;;;;;;;;25.50;99.90;;;;;;20849508;28;20033;-71
2022/07/29 12:53:17;;;;;;;14.33;1.90;;;25.00;99.90;;;;;;20895096;28;20371;-73
2022/07/29 13:03:18;;;;;;;;;;;24.90;99.90;;;;;;20943950;28;20135;-73
2022/07/29 13:13:19;;;;;;;5.47;1.60;;;24.80;99.90;;;;;;20982250;28;19916;-73
2022/07/29 13:23:19;;;;;;;;;;;24.50;99.90;;;;;;20986653;28;20751;-74
2022/07/29 13:33:20;;;;;;;2.90;1.50;;;24.50;99.90;;;;;;20914492;28;19956;-74
2022/07/29 13:43:21;;;;;;;;;;;24.40;99.90;;;;;;20899907;28;20026;-75
2022/07/29 13:53:22;;;;;;;4.53;1.63;;;24.00;99.90;;;;;;20837016;28;19916;-74
2022/07/29 14:03:23;;;;;;;3.10;1.57;;;23.80;99.90;;;;;;20836284;28;20037;-74
2022/07/29 14:13:24;;;;;;;11.93;1.63;;;23.70;99.90;;;;;;20835727;28;20041;-74
2022/07/29 14:23:25;;;;;;;2.33;1.23;;;23.90;99.90;;;;;;20833930;28;20060;-74
2022/07/29 14:33:26;;;;;;;6.87;2.03;;;23.80;99.90;;;;;;20870040;28;20037;-75
2022/07/29 14:43:27;;;;;;;3.53;1.50;;;23.90;99.90;;;;;;20913701;28;20710;-75
2022/07/29 14:53:28;;;;;;;6.22;1.30;;;23.80;99.90;;;;;;20909612;28;20366;-74
2022/07/29 15:03:28;;;;;;;5.87;1.80;;;23.60;99.90;;;;;;20889146;28;20033;-74
2022/07/29 15:13:29;;;;;;;4.45;1.70;;;23.70;99.90;;;;;;20912993;28;20025;-74
2022/07/29 15:23:30;;;;;;;3.20;1.97;;;23.60;99.90;;;;;;20855410;22;20519;-75
2022/07/29 15:33:31;;;;;;;7.63;1.47;;;23.60;99.90;;;;;;20766760;28;20281;-75
2022/07/29 15:43:32;;;;;;;3.08;1.33;;;23.70;99.90;;;;;;20749385;28;20060;-76
2022/07/29 15:53:33;;;;;;;;;;;23.90;99.90;;;;;;20748226;28;20080;-76
2022/07/29 16:03:33;;;;;;;2.33;1.60;;;24.00;99.90;;;;;;20746796;28;20023;-75
2022/07/29 16:13:34;;;;;;;3.50;1.73;;;23.70;99.90;;;;;;20746286;28;20046;-74
2022/07/29 16:23:35;;;;;;;5.03;2.63;;;23.30;99.90;;;;;;20749474;28;20030;-73
2022/07/29 16:33:36;;;;;;;4.50;2.03;;;23.20;99.90;;;;;;20746826;28;20030;-74
2022/07/29 16:43:37;;;;;;;3.17;2.33;;;23.20;99.90;;;;;;20745075;28;20073;-74
2022/07/29 16:53:38;;;;;;;4.50;2.27;;;23.10;99.90;;;;;;20745242;28;20492;-74
2022/07/29 17:04:05;;;;;;;2.93;2.00;;;23.40;99.90;;;;;;20745071;28;20120;-75
2022/07/29 17:13:59;;;;;;;6.30;2.20;;;23.50;99.90;;;;;;20758212;28;20073;-76
2022/07/29 17:24:00;;;;;;;2.75;1.98;;;23.10;99.90;;;;;;20758701;28;20030;-77
2022/07/29 17:34:01;;;;;;;2.40;1.97;;;23.20;99.90;;;;;;20758562;28;20113;-75
2022/07/29 17:44:02;;;;;;;;;;;23.10;99.90;;;;;;20757597;28;20041;-76
2022/07/29 17:54:03;;;;;;;5.93;2.35;;;22.90;99.90;;;;;;20760485;28;19909;-75
2022/07/29 18:04:04;;;;;;;6.63;1.95;;;22.70;99.90;;;;;;20754852;28;20034;-75
2022/07/29 18:14:05;;;;;;;5.63;2.50;;;22.30;99.90;;;;;;20759250;28;20026;-75
2022/07/29 18:24:07;;;;;;;3.75;2.90;;;21.90;99.90;;;;;;20759114;28;20065;-75
2022/07/29 18:34:07;;;;;;;7.55;3.15;;;21.70;99.90;;;;;;20780310;28;20112;-76
2022/07/29 18:44:10;;;;;;;5.23;3.40;;;21.40;99.90;;;;;;20748194;28;20493;-76
2022/07/29 18:54:11;;;;;;;6.93;3.45;;;21.30;99.90;;;;;;20737534;28;20142;-76
2022/07/29 19:04:12;;;;;;;4.93;3.07;;;21.00;99.90;;;;;;20761451;28;20058;-75
2022/07/29 19:14:13;;;;;;;6.90;4.00;;;20.90;99.90;;;;;;20749736;28;20036;-77
2022/07/29 19:24:13;;;;;;;10.60;4.10;;;20.60;99.90;;;;;;20787922;28;20021;-77
2022/07/29 19:34:14;;;;;;;11.73;7.30;;;20.40;99.90;;;;;;20805990;28;20076;-76
2022/07/29 19:44:15;;;;;;;5.90;3.57;;;19.80;99.90;;;;;;20748836;28;20523;-76
2022/07/29 19:54:17;;;;;;;7.53;4.17;;;19.50;99.90;;;;;;20802970;28;20515;-76
2022/07/29 20:04:17;;;;;;;13.52;6.35;;;19.40;99.90;;;;;;20831950;28;20036;-76
2022/07/29 20:14:18;;;;;;;7.47;5.00;;;19.20;99.90;;;;;;20831317;28;20057;-76
2022/07/29 20:24:20;;;;;;;5.60;4.13;;;18.70;99.90;;;;;;20832832;28;20663;-76
2022/07/29 20:34:20;;;;;;;8.50;4.85;;;18.30;99.90;;;;;;20789988;28;20121;-76
2022/07/29 20:44:23;;;;;;;8.87;5.67;;;18.40;99.90;;;;;;20765675;28;20080;-76
2022/07/29 20:54:24;;;;;;;6.43;4.35;;;17.80;99.90;;;;;;20732139;28;20034;-76
2022/07/29 21:04:25;;;;;;;9.90;4.47;;;18.20;99.90;;;;;;20730173;28;20054;-76
2022/07/29 21:14:46;;;;;;;12.20;4.35;;;18.00;99.90;;;;;;20728214;28;20053;-76
2022/07/29 21:24:48;;;;;;;7.18;4.15;;;17.90;99.90;;;;;;20731770;23;20064;-78
2022/07/29 21:34:48;;;;;;;9.05;6.25;;;17.80;99.90;;;;;;20739707;28;20066;-76
2022/07/29 21:44:49;;;;;;;5.73;4.00;;;17.60;99.90;;;;;;20778053;28;20041;-77
2022/07/29 21:54:50;;;;;;;8.23;4.37;;;17.50;99.90;;;;;;20748418;28;20061;-79
2022/07/29 22:04:51;;;;;;;5.00;3.93;;;17.50;99.90;;;;;;20751999;28;20136;-78
2022/07/29 22:14:52;;;;;;;5.83;4.10;;;17.70;99.90;;;;;;20750796;28;20037;-78
2022/07/29 22:24:52;;;;;;;7.53;3.90;;;17.80;99.90;;;;;;20753895;28;20404;-79
2022/07/29 22:34:53;;;;;;;9.67;4.37;;;18.00;99.90;;;;;;20749064;28;20076;-79
2022/07/29 22:44:54;;;;;;;7.07;3.90;;;18.10;99.90;;;;;;20773486;28;20065;-77
2022/07/29 22:54:55;;;;;;;5.37;3.87;;;17.90;99.90;;;;;;20748735;28;20042;-80
2022/07/29 23:04:56;;;;;;;6.73;4.00;;;17.40;99.90;;;;;;20745317;28;20129;-79
2022/07/29 23:14:57;;;;;;;6.33;4.03;;;17.30;99.90;;;;;;20764605;28;20507;-79
2022/07/29 23:24:58;;;;;;;5.87;4.23;;;17.20;99.90;;;;;;20765761;28;20295;-78
2022/07/29 23:34:59;;;;;;;4.13;3.70;;;16.80;99.90;;;;;;20765656;28;20044;-80
2022/07/29 23:45:00;;;;;;;28.03;14.70;;;16.90;99.90;;;;;;20746690;28;20045;-78
2022/07/29 23:55:01;;;;;;;10.80;6.70;;;16.40;99.90;;;;;;20764069;28;20029;-79
